createdAt,value
2022-10-12T00:02:18.753Z,6.70
2022-10-12T00:04:45.712Z,6.70
2022-10-12T00:07:12.818Z,6.70
2022-10-12T00:09:39.508Z,6.70
2022-10-12T00:12:06.400Z,6.60
2022-10-12T00:14:37.046Z,6.70
2022-10-12T00:17:03.993Z,6.60
2022-10-12T00:19:30.886Z,6.60
2022-10-12T00:21:57.821Z,6.60
2022-10-12T00:24:25.520Z,6.50
2022-10-12T00:26:52.301Z,6.50
2022-10-12T00:29:19.029Z,6.50
2022-10-12T00:31:45.735Z,6.50
2022-10-12T00:34:12.435Z,6.50
2022-10-12T00:36:39.168Z,6.50
2022-10-12T00:39:08.029Z,6.50
2022-10-12T00:41:37.205Z,6.50
2022-10-12T00:44:04.264Z,6.50
2022-10-12T00:46:35.260Z,6.40
2022-10-12T00:49:17.984Z,6.30
2022-10-12T00:51:46.733Z,6.30
2022-10-12T00:54:16.953Z,6.30
2022-10-12T00:56:44.109Z,6.30
2022-10-12T00:59:14.025Z,6.40
2022-10-12T01:01:40.783Z,6.40
2022-10-12T01:04:07.502Z,6.40
2022-10-12T01:06:34.422Z,6.30
2022-10-12T01:09:01.251Z,6.30
2022-10-12T01:11:27.951Z,6.30
2022-10-12T01:13:55.191Z,6.30
2022-10-12T01:16:34.212Z,6.30
2022-10-12T01:19:06.622Z,6.30
2022-10-12T01:21:34.839Z,6.30
2022-10-12T01:24:16.543Z,6.20
2022-10-12T01:27:13.809Z,6.20
2022-10-12T01:29:49.755Z,6.30
2022-10-12T01:32:42.495Z,6.30
2022-10-12T01:35:35.711Z,6.20
2022-10-12T01:38:27.100Z,6.20
2022-10-12T01:40:56.866Z,6.10
2022-10-12T01:43:23.804Z,6.10
2022-10-12T01:45:50.690Z,6.10
2022-10-12T01:48:17.394Z,6.10
2022-10-12T01:50:52.699Z,6.10
2022-10-12T01:53:25.151Z,6.10
2022-10-12T01:55:57.939Z,6.10
2022-10-12T01:58:50.433Z,6.00
2022-10-12T02:01:39.309Z,6.00
2022-10-12T02:04:12.004Z,5.90
2022-10-12T02:06:45.235Z,5.90
2022-10-12T02:09:24.431Z,5.80
2022-10-12T02:11:51.588Z,5.80
2022-10-12T02:14:22.917Z,5.70
2022-10-12T02:16:59.707Z,5.70
2022-10-12T02:19:27.778Z,5.70
2022-10-12T02:21:55.709Z,5.70
2022-10-12T02:24:22.505Z,5.60
2022-10-12T02:26:50.153Z,5.60
2022-10-12T02:29:19.882Z,5.60
2022-10-12T02:31:53.482Z,5.60
2022-10-12T02:34:23.563Z,5.60
2022-10-12T02:36:57.061Z,5.60
2022-10-12T02:39:25.357Z,5.50
2022-10-12T02:41:54.090Z,5.50
2022-10-12T02:44:23.521Z,5.50
2022-10-12T02:46:50.414Z,5.50
2022-10-12T02:49:17.303Z,5.50
2022-10-12T02:51:44.275Z,5.50
2022-10-12T02:54:11.201Z,5.50
2022-10-12T02:56:45.698Z,5.60
2022-10-12T02:59:13.392Z,5.60
2022-10-12T03:01:40.278Z,5.60
2022-10-12T03:04:07.015Z,5.60
2022-10-12T03:06:35.663Z,5.60
2022-10-12T03:09:02.699Z,5.60
2022-10-12T03:11:29.375Z,5.60
2022-10-12T03:13:56.051Z,5.70
2022-10-12T03:16:22.797Z,5.70
2022-10-12T03:18:49.623Z,5.80
2022-10-12T03:21:16.430Z,5.80
2022-10-12T03:23:43.124Z,5.80
2022-10-12T03:26:09.953Z,5.90
2022-10-12T03:28:37.198Z,5.90
2022-10-12T03:31:04.286Z,5.90
2022-10-12T03:33:30.932Z,6.00
2022-10-12T03:35:57.636Z,6.10
2022-10-12T03:38:24.293Z,6.10
2022-10-12T03:40:51.083Z,6.20
2022-10-12T03:43:17.903Z,6.30
2022-10-12T03:45:44.609Z,6.30
2022-10-12T03:48:11.366Z,6.40
2022-10-12T03:50:38.092Z,6.40
2022-10-12T03:53:05.023Z,6.50
2022-10-12T03:55:32.502Z,6.50
2022-10-12T03:57:59.200Z,6.60
2022-10-12T04:00:28.120Z,6.60
2022-10-12T04:02:54.928Z,6.60
2022-10-12T04:05:21.623Z,6.60
2022-10-12T04:07:48.332Z,6.70
2022-10-12T04:10:15.219Z,6.70
2022-10-12T04:12:41.945Z,6.70
2022-10-12T04:15:10.075Z,6.80
2022-10-12T04:17:37.058Z,6.80
2022-10-12T04:20:04.457Z,6.80
2022-10-12T04:22:31.139Z,6.80
2022-10-12T04:24:57.879Z,6.90
2022-10-12T04:27:24.613Z,6.90
2022-10-12T04:29:51.317Z,6.90
2022-10-12T04:32:18.403Z,6.90
2022-10-12T04:34:45.135Z,7.00
2022-10-12T04:37:11.774Z,7.00
2022-10-12T04:39:38.491Z,7.00
2022-10-12T04:42:06.896Z,7.00
2022-10-12T04:44:33.926Z,7.10
2022-10-12T04:47:01.510Z,7.10
2022-10-12T04:49:28.405Z,7.10
2022-10-12T04:51:55.057Z,7.20
2022-10-12T04:54:21.759Z,7.20
2022-10-12T04:56:48.496Z,7.30
2022-10-12T04:59:15.363Z,7.30
2022-10-12T05:01:42.172Z,7.30
2022-10-12T05:04:09.149Z,7.30
2022-10-12T05:06:35.919Z,7.30
2022-10-12T05:09:02.686Z,7.40
2022-10-12T05:11:29.394Z,7.40
2022-10-12T05:13:56.200Z,7.40
2022-10-12T05:16:23.121Z,7.30
2022-10-12T05:18:49.779Z,7.30
2022-10-12T05:21:16.466Z,7.30
2022-10-12T05:23:43.295Z,7.30
2022-10-12T05:26:10.010Z,7.30
2022-10-12T05:28:40.822Z,7.30
2022-10-12T05:31:08.298Z,7.30
2022-10-12T05:33:34.984Z,7.20
2022-10-12T05:36:02.480Z,7.20
2022-10-12T05:38:29.253Z,7.20
2022-10-12T05:41:00.303Z,7.20
2022-10-12T05:43:27.801Z,7.20
2022-10-12T05:45:54.737Z,7.20
2022-10-12T05:48:21.540Z,7.20
2022-10-12T05:50:48.366Z,7.20
2022-10-12T05:53:15.158Z,7.20
2022-10-12T05:55:52.135Z,7.20
2022-10-12T05:58:19.014Z,7.30
2022-10-12T06:00:45.782Z,7.30
2022-10-12T06:03:12.563Z,7.30
2022-10-12T06:05:39.286Z,7.30
2022-10-12T06:08:05.995Z,7.30
2022-10-12T06:10:32.729Z,7.40
2022-10-12T06:12:59.701Z,7.40
2022-10-12T06:15:26.349Z,7.40
2022-10-12T06:17:53.067Z,7.50
2022-10-12T06:20:19.781Z,7.50
2022-10-12T06:22:46.506Z,7.60
2022-10-12T06:25:13.278Z,7.60
2022-10-12T06:27:40.156Z,7.60
2022-10-12T06:30:07.243Z,7.70
2022-10-12T06:32:34.362Z,7.70
2022-10-12T06:35:01.089Z,7.70
2022-10-12T06:37:49.048Z,7.80
2022-10-12T06:40:17.345Z,7.80
2022-10-12T06:42:44.016Z,7.90
2022-10-12T06:45:11.282Z,7.90
2022-10-12T06:47:38.036Z,7.90
2022-10-12T06:50:05.180Z,8.00
2022-10-12T06:52:32.149Z,8.00
2022-10-12T06:54:59.152Z,8.10
2022-10-12T06:57:26.178Z,8.10
2022-10-12T06:59:53.829Z,8.20
2022-10-12T07:02:20.705Z,8.20
2022-10-12T07:04:51.615Z,8.30
2022-10-12T07:07:18.970Z,8.30
2022-10-12T07:09:45.645Z,8.40
2022-10-12T07:12:12.420Z,8.40
2022-10-12T07:14:39.127Z,8.50
2022-10-12T07:17:06.032Z,8.50
2022-10-12T07:19:32.860Z,8.60
2022-10-12T07:22:00.035Z,8.60
2022-10-12T07:24:35.634Z,8.70
2022-10-12T07:27:03.676Z,8.80
2022-10-12T07:29:31.851Z,8.80
2022-10-12T07:31:59.406Z,8.90
2022-10-12T07:34:29.499Z,8.90
2022-10-12T07:36:59.628Z,9.00
2022-10-12T07:39:26.943Z,9.10
2022-10-12T07:41:53.715Z,9.10
2022-10-12T07:44:21.068Z,9.20
2022-10-12T07:46:47.911Z,9.30
2022-10-12T07:49:15.247Z,9.40
2022-10-12T07:51:42.208Z,9.50
2022-10-12T07:54:09.444Z,9.60
2022-10-12T07:56:36.333Z,9.70
2022-10-12T07:59:03.096Z,9.80
2022-10-12T08:01:30.819Z,9.90
2022-10-12T08:04:01.478Z,10.00
2022-10-12T08:06:33.063Z,10.10
2022-10-12T08:09:00.210Z,10.30
2022-10-12T08:11:28.006Z,10.40
2022-10-12T08:13:56.032Z,10.50
2022-10-12T08:16:22.831Z,10.60
2022-10-12T08:18:49.700Z,10.70
2022-10-12T08:21:16.776Z,10.80
2022-10-12T08:23:45.097Z,11.00
2022-10-12T08:26:12.332Z,11.20
2022-10-12T08:28:39.115Z,11.40
2022-10-12T08:31:07.926Z,11.50
2022-10-12T08:33:34.707Z,11.60
2022-10-12T08:36:03.338Z,11.70
2022-10-12T08:38:31.453Z,11.80
2022-10-12T08:41:03.903Z,11.90
2022-10-12T08:43:45.816Z,12.00
2022-10-12T08:46:12.579Z,12.20
2022-10-12T08:48:50.509Z,12.30
2022-10-12T08:51:20.226Z,12.40
2022-10-12T08:53:49.895Z,12.50
2022-10-12T08:56:18.606Z,12.60
2022-10-12T08:58:45.518Z,12.60
2022-10-12T09:01:38.693Z,12.70
2022-10-12T09:04:29.573Z,12.70
2022-10-12T09:07:16.947Z,12.80
2022-10-12T09:10:02.318Z,12.90
2022-10-12T09:12:51.140Z,12.90
2022-10-12T09:15:29.951Z,12.90
2022-10-12T09:17:57.600Z,12.90
2022-10-12T09:20:53.830Z,12.90
2022-10-12T09:23:28.504Z,13.00
2022-10-12T09:25:57.265Z,13.10
2022-10-12T09:28:35.132Z,13.20
2022-10-12T09:31:29.509Z,13.30
2022-10-12T09:34:00.428Z,13.30
2022-10-12T09:36:28.929Z,13.40
2022-10-12T09:38:55.618Z,13.40
2022-10-12T09:41:24.182Z,13.50
2022-10-12T09:43:53.701Z,13.60
2022-10-12T09:46:48.391Z,13.70
2022-10-12T09:49:15.060Z,13.80
2022-10-12T09:51:43.918Z,14.00
2022-10-12T09:54:17.168Z,14.20
2022-10-12T09:56:49.795Z,14.40
2022-10-12T09:59:25.847Z,14.70
2022-10-12T10:02:10.812Z,14.90
2022-10-12T10:04:38.324Z,15.10
2022-10-12T10:07:20.494Z,15.20
2022-10-12T10:09:47.755Z,15.40
2022-10-12T10:12:22.472Z,15.50
2022-10-12T10:14:50.007Z,15.60
2022-10-12T10:17:24.023Z,15.50
2022-10-12T10:19:51.452Z,15.50
2022-10-12T10:22:18.738Z,15.50
2022-10-12T10:24:50.620Z,15.60
2022-10-12T10:27:37.114Z,15.70
2022-10-12T10:30:29.730Z,15.90
2022-10-12T10:33:16.264Z,16.00
2022-10-12T10:36:03.081Z,16.20
2022-10-12T10:39:00.061Z,16.40
2022-10-12T10:41:37.552Z,16.70
2022-10-12T10:44:05.127Z,16.90
2022-10-12T10:46:34.322Z,17.00
2022-10-12T10:49:06.531Z,16.90
2022-10-12T10:51:44.705Z,16.90
2022-10-12T10:54:38.759Z,17.00
2022-10-12T10:57:27.220Z,17.20
2022-10-12T10:59:54.543Z,17.20
2022-10-12T11:02:29.191Z,17.30
2022-10-12T11:05:11.121Z,17.50
2022-10-12T11:07:45.783Z,17.50
2022-10-12T11:10:29.469Z,17.60
2022-10-12T11:13:20.786Z,17.50
2022-10-12T11:15:50.628Z,17.60
2022-10-12T11:18:20.646Z,17.60
2022-10-12T11:21:08.966Z,17.60
2022-10-12T11:23:59.760Z,17.60
2022-10-12T11:26:39.779Z,17.80
2022-10-12T11:29:06.592Z,18.10
2022-10-12T11:31:39.274Z,18.20
2022-10-12T11:34:12.650Z,18.30
2022-10-12T11:36:51.247Z,18.40
2022-10-12T11:39:34.939Z,18.50
2022-10-12T11:42:20.462Z,18.70
2022-10-12T11:44:48.407Z,18.80
2022-10-12T11:47:34.806Z,18.80
2022-10-12T11:50:18.770Z,18.80
2022-10-12T11:52:46.252Z,19.00
2022-10-12T11:55:31.226Z,19.10
2022-10-12T11:58:00.264Z,19.30
2022-10-12T12:01:03.026Z,19.70
2022-10-12T12:03:29.964Z,20.00
2022-10-12T12:05:57.248Z,20.30
2022-10-12T12:08:44.179Z,20.30
2022-10-12T12:11:21.880Z,20.40
2022-10-12T12:13:48.744Z,20.40
2022-10-12T12:16:19.009Z,20.40
2022-10-12T12:19:15.071Z,20.20
2022-10-12T12:22:20.122Z,19.90
2022-10-12T12:24:56.971Z,19.70
2022-10-12T12:27:27.562Z,19.50
2022-10-12T12:29:54.356Z,19.20
2022-10-12T12:32:21.180Z,19.10
2022-10-12T12:35:00.075Z,19.10
2022-10-12T12:37:28.912Z,19.10
2022-10-12T12:39:56.788Z,19.70
2022-10-12T12:42:33.192Z,20.20
2022-10-12T12:45:31.000Z,20.60
2022-10-12T12:47:57.717Z,20.80
2022-10-12T12:50:34.967Z,20.70
2022-10-12T12:53:20.131Z,20.60
2022-10-12T12:55:54.231Z,20.50
2022-10-12T12:58:29.614Z,20.30
2022-10-12T13:01:12.730Z,20.20
2022-10-12T13:03:57.274Z,20.10
2022-10-12T13:07:06.287Z,20.30
2022-10-12T13:10:01.274Z,20.50
2022-10-12T13:12:52.110Z,20.80
2022-10-12T13:15:30.935Z,20.40
2022-10-12T13:18:34.494Z,20.10
2022-10-12T13:21:01.709Z,20.10
2022-10-12T13:23:28.488Z,19.90
2022-10-12T13:25:58.655Z,19.70
2022-10-12T13:28:27.229Z,19.60
2022-10-12T13:31:11.538Z,19.70
2022-10-12T13:34:00.383Z,20.00
2022-10-12T13:36:31.973Z,20.10
2022-10-12T13:39:00.388Z,20.10
2022-10-12T13:41:30.300Z,19.70
2022-10-12T13:44:01.918Z,19.40
2022-10-12T13:46:48.215Z,19.20
2022-10-12T13:49:27.825Z,19.00
2022-10-12T13:51:59.466Z,18.90
2022-10-12T13:54:37.542Z,18.80
2022-10-12T13:57:27.927Z,18.70
2022-10-12T13:59:58.170Z,18.60
2022-10-12T14:02:27.237Z,18.40
2022-10-12T14:04:55.326Z,18.40
2022-10-12T14:07:28.103Z,18.30
2022-10-12T14:09:57.244Z,18.30
2022-10-12T14:12:25.741Z,18.30
2022-10-12T14:14:52.608Z,18.40
2022-10-12T14:17:20.281Z,18.40
2022-10-12T14:19:53.092Z,18.40
2022-10-12T14:22:30.440Z,18.40
2022-10-12T14:25:23.969Z,18.30
2022-10-12T14:27:54.639Z,18.40
2022-10-12T14:30:28.575Z,18.40
2022-10-12T14:32:59.706Z,18.40
2022-10-12T14:35:28.052Z,18.50
2022-10-12T14:37:55.346Z,18.60
2022-10-12T14:40:35.357Z,18.60
2022-10-12T14:43:24.100Z,18.70
2022-10-12T14:45:51.702Z,18.90
2022-10-12T14:48:20.183Z,18.90
2022-10-12T14:50:47.029Z,18.70
2022-10-12T14:53:14.041Z,18.40
2022-10-12T14:55:41.557Z,18.30
2022-10-12T14:58:10.354Z,18.10
2022-10-12T15:00:37.496Z,18.00
2022-10-12T15:03:04.564Z,17.90
2022-10-12T15:05:32.021Z,17.80
2022-10-12T15:07:59.472Z,17.70
2022-10-12T15:10:26.604Z,17.60
2022-10-12T15:12:53.310Z,17.60
2022-10-12T15:15:40.855Z,17.60
2022-10-12T15:18:07.808Z,17.50
2022-10-12T15:20:34.883Z,17.50
2022-10-12T15:23:02.838Z,17.50
2022-10-12T15:25:49.855Z,17.60
2022-10-12T15:28:16.625Z,17.60
2022-10-12T15:31:11.663Z,17.70
2022-10-12T15:33:30.183Z,17.70
2022-10-12T15:35:57.062Z,17.70
2022-10-12T15:38:23.883Z,17.70
2022-10-12T15:40:53.626Z,17.60
2022-10-12T15:43:20.599Z,17.60
2022-10-12T15:45:47.360Z,17.60
2022-10-12T15:48:14.276Z,17.50
2022-10-12T15:50:48.049Z,17.60
2022-10-12T15:53:20.336Z,17.60
2022-10-12T15:55:47.088Z,17.50
2022-10-12T15:58:14.334Z,17.50
2022-10-12T16:00:41.137Z,17.40
2022-10-12T16:03:09.953Z,17.30
2022-10-12T16:05:37.034Z,17.30
2022-10-12T16:08:05.682Z,17.20
2022-10-12T16:10:36.982Z,17.20
2022-10-12T16:13:04.738Z,17.20
2022-10-12T16:15:32.798Z,17.10
2022-10-12T16:18:00.127Z,17.10
2022-10-12T16:20:27.862Z,17.00
2022-10-12T16:22:54.739Z,17.00
2022-10-12T16:25:24.069Z,16.90
2022-10-12T16:27:55.608Z,16.90
2022-10-12T16:30:22.564Z,16.80
2022-10-12T16:32:49.219Z,16.80
2022-10-12T16:35:16.409Z,16.80
2022-10-12T16:37:43.192Z,16.70
2022-10-12T16:40:10.724Z,16.70
2022-10-12T16:42:37.686Z,16.70
2022-10-12T16:45:04.820Z,16.60
2022-10-12T16:47:31.556Z,16.60
2022-10-12T16:49:58.339Z,16.50
2022-10-12T16:52:25.571Z,16.40
2022-10-12T16:54:53.113Z,16.40
2022-10-12T16:57:19.955Z,16.40
2022-10-12T16:59:47.455Z,16.30
2022-10-12T17:02:15.763Z,16.30
2022-10-12T17:04:42.864Z,16.20
2022-10-12T17:07:09.934Z,16.20
2022-10-12T17:09:38.711Z,16.20
2022-10-12T17:12:05.582Z,16.10
2022-10-12T17:14:32.565Z,16.10
2022-10-12T17:16:59.255Z,16.00
2022-10-12T17:19:26.263Z,16.00
2022-10-12T17:21:54.006Z,16.00
2022-10-12T17:24:21.249Z,16.00
2022-10-12T17:26:48.135Z,15.90
2022-10-12T17:29:16.370Z,15.90
2022-10-12T17:31:43.346Z,15.80
2022-10-12T17:34:21.290Z,15.90
2022-10-12T17:36:48.401Z,15.80
2022-10-12T17:39:15.474Z,15.80
2022-10-12T17:41:42.221Z,15.80
2022-10-12T17:44:11.206Z,15.70
2022-10-12T17:46:39.169Z,15.70
2022-10-12T17:49:06.618Z,15.70
2022-10-12T17:51:33.379Z,15.70
2022-10-12T17:54:00.206Z,15.60
2022-10-12T17:56:27.018Z,15.60
2022-10-12T17:58:58.567Z,15.60
2022-10-12T18:01:25.848Z,15.50
2022-10-12T18:03:55.269Z,15.50
2022-10-12T18:06:23.102Z,15.50
2022-10-12T18:08:50.564Z,15.40
2022-10-12T18:11:18.076Z,15.40
2022-10-12T18:13:49.126Z,15.40
2022-10-12T18:16:17.019Z,15.40
2022-10-12T18:18:43.760Z,15.30
2022-10-12T18:21:12.918Z,15.30
2022-10-12T18:23:40.596Z,15.30
2022-10-12T18:26:08.362Z,15.30
2022-10-12T18:28:35.258Z,15.30
2022-10-12T18:31:02.399Z,15.30
2022-10-12T18:33:30.032Z,15.20
2022-10-12T18:36:03.276Z,15.20
2022-10-12T18:38:30.327Z,15.20
2022-10-12T18:41:02.871Z,15.20
2022-10-12T18:43:29.653Z,15.20
2022-10-12T18:45:56.417Z,15.10
2022-10-12T18:48:23.135Z,15.10
2022-10-12T18:50:49.853Z,15.00
2022-10-12T18:53:16.702Z,15.00
2022-10-12T18:55:43.375Z,15.00
2022-10-12T18:58:10.016Z,14.90
2022-10-12T19:00:36.895Z,14.90
2022-10-12T19:03:03.951Z,14.90
2022-10-12T19:05:31.212Z,14.80
2022-10-12T19:07:58.387Z,14.80
2022-10-12T19:10:25.082Z,14.80
2022-10-12T19:12:51.762Z,14.80
2022-10-12T19:15:18.959Z,14.80
2022-10-12T19:17:45.767Z,14.80
2022-10-12T19:20:12.567Z,14.80
2022-10-12T19:22:39.269Z,14.70
2022-10-12T19:25:06.601Z,14.70
2022-10-12T19:27:33.335Z,14.70
2022-10-12T19:30:00.757Z,14.70
2022-10-12T19:32:27.524Z,14.60
2022-10-12T19:34:54.402Z,14.60
2022-10-12T19:37:21.177Z,14.60
2022-10-12T19:39:48.970Z,14.50
2022-10-12T19:42:15.825Z,14.50
2022-10-12T19:44:42.843Z,14.50
2022-10-12T19:47:09.621Z,14.50
2022-10-12T19:49:37.892Z,14.50
2022-10-12T19:52:06.843Z,14.40
2022-10-12T19:54:36.263Z,14.40
2022-10-12T19:57:03.161Z,14.40
2022-10-12T19:59:33.143Z,14.40
2022-10-12T20:01:59.962Z,14.40
2022-10-12T20:04:26.692Z,14.30
2022-10-12T20:06:53.372Z,14.30
2022-10-12T20:09:20.054Z,14.30
2022-10-12T20:11:46.741Z,14.30
2022-10-12T20:14:13.549Z,14.30
2022-10-12T20:16:40.319Z,14.30
2022-10-12T20:19:07.403Z,14.20
2022-10-12T20:21:36.375Z,14.20
2022-10-12T20:24:03.202Z,14.20
2022-10-12T20:26:29.937Z,14.20
2022-10-12T20:28:56.810Z,14.20
2022-10-12T20:31:24.839Z,14.10
2022-10-12T20:33:54.939Z,14.20
2022-10-12T20:36:30.824Z,14.10
2022-10-12T20:38:58.194Z,14.10
2022-10-12T20:41:25.783Z,14.10
2022-10-12T20:43:57.309Z,14.10
2022-10-12T20:46:24.242Z,14.00
2022-10-12T20:48:54.686Z,14.10
2022-10-12T20:51:29.787Z,14.10
2022-10-12T20:53:59.330Z,14.00
2022-10-12T20:56:27.356Z,14.10
2022-10-12T20:58:55.421Z,14.10
2022-10-12T21:01:22.217Z,14.10
2022-10-12T21:03:49.240Z,14.10
2022-10-12T21:06:16.330Z,14.20
2022-10-12T21:08:43.289Z,14.10
2022-10-12T21:11:10.133Z,14.20
2022-10-12T21:13:41.319Z,14.10
2022-10-12T21:16:11.479Z,14.20
2022-10-12T21:18:38.895Z,14.20
2022-10-12T21:21:08.810Z,14.20
2022-10-12T21:23:35.493Z,14.20
2022-10-12T21:26:12.461Z,14.20
2022-10-12T21:28:39.361Z,14.20
2022-10-12T21:31:06.403Z,14.20
2022-10-12T21:33:34.307Z,14.20
2022-10-12T21:36:11.802Z,14.20
2022-10-12T21:38:39.183Z,14.10
2022-10-12T21:41:06.468Z,14.10
2022-10-12T21:43:33.313Z,14.10
2022-10-12T21:46:07.545Z,14.10
2022-10-12T21:48:34.376Z,14.20
2022-10-12T21:51:01.429Z,14.20
2022-10-12T21:53:28.253Z,14.20
2022-10-12T21:55:54.968Z,14.20
2022-10-12T21:58:21.685Z,14.20
2022-10-12T22:00:48.524Z,14.30
2022-10-12T22:03:15.332Z,14.30
2022-10-12T22:05:43.007Z,14.30
2022-10-12T22:08:09.890Z,14.30
2022-10-12T22:10:38.668Z,14.30
2022-10-12T22:13:06.261Z,14.30
2022-10-12T22:15:33.064Z,14.30
2022-10-12T22:17:59.816Z,14.30
2022-10-12T22:20:26.451Z,14.30
2022-10-12T22:22:53.490Z,14.40
2022-10-12T22:25:20.274Z,14.40
2022-10-12T22:27:46.970Z,14.40
2022-10-12T22:30:14.363Z,14.40
2022-10-12T22:32:41.658Z,14.40
2022-10-12T22:35:08.633Z,14.50
2022-10-12T22:37:35.571Z,14.40
2022-10-12T22:40:02.628Z,14.50
2022-10-12T22:42:29.370Z,14.40
2022-10-12T22:44:56.727Z,14.40
2022-10-12T22:47:25.655Z,14.40
2022-10-12T22:49:52.426Z,14.40
2022-10-12T22:52:19.612Z,14.40
2022-10-12T22:54:46.812Z,14.40
2022-10-12T22:57:13.904Z,14.40
2022-10-12T22:59:41.858Z,14.40
2022-10-12T23:02:08.718Z,14.40
2022-10-12T23:04:35.640Z,14.30
2022-10-12T23:07:02.338Z,14.40
2022-10-12T23:09:29.104Z,14.30
2022-10-12T23:11:55.887Z,14.30
2022-10-12T23:14:22.738Z,14.30
2022-10-12T23:16:49.462Z,14.30
2022-10-12T23:19:16.212Z,14.20
2022-10-12T23:21:43.209Z,14.20
2022-10-12T23:24:09.961Z,14.20
2022-10-12T23:26:36.847Z,14.20
2022-10-12T23:29:03.813Z,14.20
2022-10-12T23:31:30.908Z,14.20
2022-10-12T23:34:01.980Z,14.20
2022-10-12T23:36:29.191Z,14.20
2022-10-12T23:38:56.009Z,14.20
2022-10-12T23:41:22.852Z,14.20
2022-10-12T23:43:49.566Z,14.10
2022-10-12T23:46:16.353Z,14.10
2022-10-12T23:48:43.010Z,14.10
2022-10-12T23:51:10.135Z,14.10
2022-10-12T23:53:37.051Z,14.10
2022-10-12T23:56:04.420Z,14.10
2022-10-12T23:58:31.476Z,14.00
